• Join FlightAware (Why Join?)
  • Login
  • US Flag 
12:35PM EDT


 

Airport Tracker/Info


-or-


 

Live Flight TrackerFlight Track Log ✈ QTR105 ✈ 08-May-2013 ✈ OMDB / DXB - OTBD / DOH

Flight Track Log - Related Links

Times and Time Zones

All times are in EDT time to prevent confusion due to time zone crossing. See the QTR105 flight status page for this flight to view local times or setup timezone preferences in your user account.

Time Position Orientation Groundspeed Altitude Reporting Facility
EDT Latitude Longitude Course Direction KTS MPH feet Rate Location/Type
11:32PM 25.2560 55.3650 360° North 144 166 200  Level FlightAware
11:32PM 25.2600 55.3590 306° West 171 197 200 2,520 Level FlightAware
11:32PM 25.2750 55.3310 301° West 153 176 2,100 2,280 Climbing FlightAware
11:33PM 25.2860 55.3120 303° West 167 192 2,700 960 Climbing FlightAware
11:33PM 25.2960 55.2900 297° West 202 232 3,000 1,320 Climbing FlightAware
11:34PM 25.2840 55.2560 249° West 263 303 3,700 2,940 Climbing FlightAware
11:34PM 25.2600 55.2160 236° Southwest 264 304 5,700 3,360 Climbing FlightAware
11:35PM 25.2560 55.1960 258° West 261 300 6,500 2,760 Climbing FlightAware
11:35PM 25.2500 55.1580 260° West 271 312 7,800 2,640 Climbing FlightAware
11:35PM 25.2470 55.1370 261° West 275 316 8,500 2,820 Climbing FlightAware
11:36PM 25.2410 55.1000 260° West 280 322 9,700 2,220 Climbing FlightAware
11:36PM 25.2300 55.0330 260° West 316 364 11,100 1,500 Climbing FlightAware
11:37PM 25.2190 54.9660 260° West 357 411 11,900 1,680 Climbing FlightAware
11:38PM 25.2080 54.8960 260° West 368 423 13,400 2,700 Climbing FlightAware
11:39PM 25.1940 54.8090 260° West 360 414 15,800 2,460 Climbing FlightAware
11:39PM 25.1960 54.7080 271° West 381 438 17,500 2,160 Climbing FlightAware
11:40PM 25.2140 54.6330 285° West 374 430 19,300 1,740 Climbing FlightAware
11:41PM 25.2330 54.5520 285° West 370 426 20,000 480 Climbing FlightAware
11:42PM 25.2510 54.4780 285° West 375 432 20,000 540 Level FlightAware
11:42PM 25.2720 54.3910 285° West 376 433 20,800 1,200 Climbing FlightAware
11:43PM 25.2920 54.3080 285° West 376 433 21,800 840 Climbing FlightAware
11:44PM 25.3080 54.2350 284° West 367 422 22,000 120 Climbing FlightAware
11:44PM 25.3080 54.1800 270° West 367 422 22,000  Level FlightAware
11:45PM 25.3060 54.0670 269° West 369 425 22,000  Level FlightAware
11:46PM 25.3040 53.9730 269° West 370 426 22,000  Level FlightAware
11:47PM 25.3020 53.8960 268° West 370 426 22,000  Level FlightAware
11:47PM 25.3000 53.8110 269° West 372 428 22,000  Level FlightAware
11:48PM 25.2990 53.7570 269° West 371 427 22,000  Level FlightAware
11:49PM 25.2970 53.6830 268° West 371 427 22,000  Level FlightAware
11:49PM 25.2950 53.6030 268° West 371 427 22,000 -180 Level FlightAware
11:50PM 25.2930 53.5230 268° West 355 409 21,800 -1,020 Descending FlightAware
11:51PM 25.2910 53.4490 268° West 345 397 20,600 -1,380 Descending FlightAware
11:51PM 25.2890 53.3780 268° West 346 398 20,000 -480 Descending FlightAware
11:52PM 25.2870 53.3000 268° West 345 397 20,000  Level FlightAware
11:53PM 25.2850 53.2290 268° West 341 392 20,000  Level FlightAware
11:53PM 25.2830 53.1590 268° West 344 396 20,000  Level FlightAware
11:54PM 25.2810 53.0810 268° West 345 397 20,000  Level FlightAware
11:55PM 25.2790 53.0170 268° West 343 395 20,000 -300 Level FlightAware
11:56PM 25.2770 52.9380 268° West 340 391 19,600 -1,320 Descending FlightAware
11:56PM 25.2750 52.8810 268° West 342 394 18,400 -1,500 Descending FlightAware
11:58PM 25.2710 52.7150 269° West 303 349 16,400 -1,380 Descending FlightAware
11:59PM 25.2520 52.5960 260° West 286 329 14,400 -1,500 Descending FlightAware
12:01AM 25.2230 52.4510 258° West 281 323 11,900 -1,500 Descending FlightAware
12:02AM 25.2050 52.3570 258° West 282 325 10,200 -1,500 Descending FlightAware
12:02AM 25.2010 52.3360 258° West 279 321 9,900 -1,080 Descending FlightAware
12:03AM 25.1850 52.2590 257° West 285 328 9,000 -900 Descending FlightAware
12:04AM 25.1770 52.2200 257° West 281 323 8,700 -600 Descending FlightAware
12:04AM 25.1690 52.1760 259° West 277 319 8,400 -660 Descending FlightAware
12:04AM 25.1610 52.1400 256° West 272 313 8,100 -600 Descending FlightAware
12:06AM 25.1370 52.0160 258° West 267 307 7,300 -720 Descending FlightAware
12:06AM 25.1290 51.9770 257° West 267 307 6,700 -720 Descending FlightAware
12:07AM 25.1230 51.9460 258° West 267 307 6,700 -900 Level FlightAware
12:07AM 25.1140 51.9040 257° West 258 297 5,900 -1,380 Descending FlightAware
12:08AM 25.1100 51.8840 258° West 258 297 5,700 -600 Descending FlightAware
12:08AM 25.1000 51.8370 257° West 232 267 5,300 -600 Descending FlightAware
12:09AM 25.0900 51.7830 258° West 201 231 4,800 -720 Descending FlightAware
12:10AM 25.0840 51.7570 256° West 197 227 4,500 -600 Descending FlightAware
12:11AM 25.0740 51.7050 258° West 165 190 4,000 -600 Descending FlightAware
12:11AM 25.0680 51.6780 256° West 154 177 3,600 -720 Descending FlightAware
12:11AM 25.0660 51.6690 256° West 153 176 3,500 -600 Descending FlightAware
12:12AM 25.0840 51.6430 307° West 178 205 3,100 -720 Descending FlightAware
12:13AM 25.1230 51.6260 338° Northwest 173 199 2,500 -840 Descending FlightAware
12:13AM 25.1410 51.6180 338° Northwest 159 183 2,100 -780 Descending FlightAware
12:14AM 25.1620 51.6090 339° North 142 163 1,800 -780 Descending FlightAware
12:14AM 25.1760 51.6030 339° North 139 160 1,400 -780 Descending FlightAware
12:15AM 25.1930 51.5950 337° Northwest 140 161 1,100 -360 Descending FlightAware
12:15AM 25.2060 51.5890 337° Northwest 140 161 1,100 -660 Level FlightAware
12:16AM 25.2380 51.5750 338° Northwest 138 159 300 -720 Descending FlightAware
12:16AM 25.2590 51.5660 339° North 138 159 100 -360 Descending FlightAware
12:19AM 25.2611 51.5651 338° Northwest  Level Estimated
12:20AM 25.2611 51.5651 324° Northwest  Level Estimated
12:21AM 25.2611 51.5651 324° Northwest  Level Estimated
12:22AM 25.2611 51.5651 324° Northwest  Level Estimated
12:23AM 25.2611 51.5651 324° Northwest  Level Estimated
12:24AM 25.2611 51.5651 324° Northwest  Level Estimated
12:25AM 25.2611 51.5651 324° Northwest  Level Estimated
12:26AM 25.2611 51.5651 324° Northwest  Level Estimated
12:27AM 25.2611 51.5651 324° Northwest  Level Estimated
12:28AM 25.2611 51.5651 324° Northwest  Level Estimated